Time;durP1;ratioP1;P1;durP2;ratioP2;P2;SDS_P1;SDS_P2;PMS_P1;PMS_P2;Temp;Humidity;BMP_temperature;BMP_pressure;BME280_temperature;BME280_humidity;BME280_pressure;Samples;Min_cycle;Max_cycle;Signal;HPM_P1;HPM_P2
2024/01/10 00:02:23;;;;;;;1999.90;999.90;;;-4.20;99.90;;;;;;4988209;28;20042;-80
2024/01/10 00:04:49;;;;;;;1999.90;999.90;;;-4.00;99.90;;;;;;4996119;28;20034;-80
2024/01/10 00:07:14;;;;;;;1999.90;999.90;;;-4.30;99.90;;;;;;4990223;28;20042;-81
2024/01/10 00:09:40;;;;;;;1999.90;999.90;;;-4.30;99.90;;;;;;4993031;28;20122;-81
2024/01/10 00:12:06;;;;;;;1999.90;999.90;;;-4.40;99.90;;;;;;4991776;28;20040;-81
2024/01/10 00:14:31;;;;;;;1999.90;999.90;;;-4.40;99.90;;;;;;5011901;28;20423;-82
2024/01/10 00:16:58;;;;;;;1999.90;999.90;;;-4.40;99.90;;;;;;5000392;28;20041;-80
2024/01/10 00:19:30;;;;;;;1999.90;999.90;;;-4.40;99.90;;;;;;5007495;28;20045;-80
2024/01/10 00:21:56;;;;;;;1999.90;999.90;;;-4.40;99.90;;;;;;4959275;28;20058;-80
2024/01/10 00:24:21;;;;;;;1999.90;999.90;;;-2.70;99.90;;;;;;4955968;29;20039;-80
2024/01/10 00:26:47;;;;;;;1999.90;999.90;;;-4.50;99.90;;;;;;4979172;28;20043;-80
2024/01/10 00:29:13;;;;;;;1999.90;999.90;;;-4.60;99.90;;;;;;4971744;28;20456;-82
2024/01/10 00:31:40;;;;;;;1999.90;999.90;;;-2.60;99.90;;;;;;4952524;28;20428;-80
2024/01/10 00:34:05;;;;;;;1999.90;999.90;;;-4.50;99.90;;;;;;4950764;28;20488;-80
2024/01/10 00:36:31;;;;;;;1999.90;999.90;;;-4.60;99.90;;;;;;4968640;28;20097;-80
2024/01/10 00:38:56;;;;;;;1999.90;999.90;;;-3.10;99.90;;;;;;4971654;28;20074;-80
2024/01/10 00:41:25;;;;;;;1999.90;999.90;;;-4.60;99.90;;;;;;4952097;28;20034;-80
2024/01/10 00:43:50;;;;;;;1999.90;999.90;;;-4.60;99.90;;;;;;4948258;28;20198;-80
2024/01/10 00:46:16;;;;;;;1999.90;999.90;;;-4.60;99.90;;;;;;4968447;28;20043;-80
2024/01/10 00:48:41;;;;;;;1999.90;999.90;;;-4.60;99.90;;;;;;4956116;28;20027;-80
2024/01/10 00:51:08;;;;;;;1999.90;999.90;;;-3.20;99.90;;;;;;4955753;28;20039;-80
2024/01/10 00:53:35;;;;;;;1999.90;999.90;;;-4.50;99.90;;;;;;4964292;28;20043;-80
2024/01/10 00:56:00;;;;;;;1999.90;999.90;;;-4.50;99.90;;;;;;4951927;28;20071;-81
2024/01/10 00:58:26;;;;;;;1999.90;999.90;;;-4.50;99.90;;;;;;4950379;28;20047;-81
2024/01/10 01:00:51;;;;;;;1999.90;999.90;;;-4.60;99.90;;;;;;4954393;28;20047;-81
2024/01/10 01:03:17;;;;;;;1999.90;999.90;;;-4.50;99.90;;;;;;4958886;28;20074;-81
2024/01/10 01:05:43;;;;;;;1999.90;999.90;;;-4.60;99.90;;;;;;4966322;28;20103;-81
2024/01/10 01:08:08;;;;;;;1999.90;999.90;;;-4.30;99.90;;;;;;4958455;28;20043;-82
2024/01/10 01:10:34;;;;;;;1999.90;999.90;;;-4.50;99.90;;;;;;4960754;28;20045;-81
2024/01/10 01:13:00;;;;;;;1999.90;999.90;;;-4.50;99.90;;;;;;4954445;28;20043;-81
2024/01/10 01:15:25;;;;;;;1999.90;999.90;;;-4.60;99.90;;;;;;4953551;28;20043;-81
2024/01/10 01:17:51;;;;;;;1999.90;999.90;;;-3.00;99.90;;;;;;4958281;28;20050;-81
2024/01/10 01:20:17;;;;;;;1999.90;999.90;;;-4.60;99.90;;;;;;4972540;28;20081;-82
2024/01/10 01:22:43;;;;;;;1999.90;999.90;;;-4.70;99.90;;;;;;4993266;28;20487;-82
2024/01/10 01:25:09;;;;;;;1999.90;999.90;;;-4.80;99.90;;;;;;5007067;28;20122;-82
2024/01/10 01:27:34;;;;;;;1999.90;999.90;;;-4.70;99.90;;;;;;5007122;28;20042;-81
2024/01/10 01:30:00;;;;;;;1999.90;999.90;;;-4.70;99.90;;;;;;4993434;28;20035;-82
2024/01/10 01:32:25;;;;;;;1999.90;999.90;;;-4.70;99.90;;;;;;5012801;28;20049;-81
2024/01/10 01:34:51;;;;;;;1999.90;999.90;;;-3.40;99.90;;;;;;4997281;28;20095;-81
2024/01/10 01:37:17;;;;;;;1999.90;999.90;;;-5.00;99.90;;;;;;4990047;28;20537;-81
2024/01/10 01:39:42;;;;;;;1999.90;999.90;;;-4.80;99.90;;;;;;5015600;28;20503;-81
2024/01/10 01:42:08;;;;;;;1999.90;999.90;;;-4.80;99.90;;;;;;5011870;28;20044;-81
2024/01/10 01:44:34;;;;;;;1999.90;999.90;;;-3.30;99.90;;;;;;4994438;28;20076;-81
2024/01/10 01:47:01;;;;;;;1999.90;999.90;;;-4.90;99.90;;;;;;5009110;28;20065;-81
2024/01/10 01:49:28;;;;;;;1999.90;999.90;;;-4.90;99.90;;;;;;4997722;28;20048;-81
2024/01/10 01:51:54;;;;;;;1999.90;999.90;;;-4.90;99.90;;;;;;5000457;28;20030;-81
2024/01/10 01:54:20;;;;;;;1999.90;999.90;;;-4.90;99.90;;;;;;4990287;28;20038;-81
2024/01/10 01:56:49;;;;;;;1999.90;999.90;;;-4.90;99.90;;;;;;5008231;28;20034;-81
2024/01/10 01:59:15;;;;;;;1999.90;999.90;;;-4.90;99.90;;;;;;4992157;28;20101;-81
2024/01/10 02:01:41;;;;;;;1999.90;999.90;;;-4.90;99.90;;;;;;4994710;28;20066;-81
2024/01/10 02:04:07;;;;;;;1999.90;999.90;;;-4.90;99.90;;;;;;4997541;28;20038;-81
2024/01/10 02:06:32;;;;;;;1999.90;999.90;;;-4.90;99.90;;;;;;4994012;28;20033;-81
2024/01/10 02:08:58;;;;;;;1999.90;999.90;;;-4.90;99.90;;;;;;4993533;28;20041;-81
2024/01/10 02:11:25;;;;;;;1999.90;999.90;;;-3.40;99.90;;;;;;4993478;28;20052;-81
2024/01/10 02:13:54;;;;;;;1999.90;999.90;;;-4.80;99.90;;;;;;4989464;28;20466;-81
2024/01/10 02:16:21;;;;;;;1999.90;999.90;;;-4.20;99.90;;;;;;5007342;28;20196;-81
2024/01/10 02:18:46;;;;;;;1999.90;999.90;;;-4.80;99.90;;;;;;4996235;28;20054;-82
2024/01/10 02:21:12;;;;;;;1999.90;999.90;;;-3.60;99.90;;;;;;4993872;28;20466;-81
2024/01/10 02:23:38;;;;;;;1999.90;999.90;;;-4.80;99.90;;;;;;5013553;28;20053;-82
2024/01/10 02:26:03;;;;;;;1999.90;999.90;;;-2.80;99.90;;;;;;5001409;28;20223;-81
2024/01/10 02:28:29;;;;;;;1999.90;999.90;;;-4.70;99.90;;;;;;5000208;28;20042;-81
2024/01/10 02:30:56;;;;;;;1999.90;999.90;;;-4.70;99.90;;;;;;4997276;28;20046;-82
2024/01/10 02:33:22;;;;;;;1999.90;999.90;;;-4.80;99.90;;;;;;5000954;28;20536;-81
2024/01/10 02:35:49;;;;;;;1999.90;999.90;;;-4.80;99.90;;;;;;5000295;28;20084;-81
2024/01/10 02:38:15;;;;;;;1999.90;999.90;;;-3.50;99.90;;;;;;5007820;28;20043;-82
2024/01/10 02:40:41;;;;;;;1999.90;999.90;;;-4.80;99.90;;;;;;5010755;28;20117;-81
2024/01/10 02:43:07;;;;;;;1999.90;999.90;;;-4.70;99.90;;;;;;4994180;28;20068;-81
2024/01/10 02:45:33;;;;;;;1999.90;999.90;;;-4.90;99.90;;;;;;5009170;28;20042;-81
2024/01/10 02:47:59;;;;;;;1999.90;999.90;;;-2.20;99.90;;;;;;4987785;28;20046;-81
2024/01/10 02:50:25;;;;;;;1999.90;999.90;;;-3.60;99.90;;;;;;4993514;28;20060;-81
2024/01/10 02:52:51;;;;;;;1999.90;999.90;;;-4.60;99.90;;;;;;4993279;28;20042;-82
2024/01/10 02:55:16;;;;;;;1999.90;999.90;;;-4.60;99.90;;;;;;4999112;28;20121;-81
2024/01/10 02:57:42;;;;;;;1999.90;999.90;;;-4.60;99.90;;;;;;4993561;28;20080;-81
2024/01/10 03:00:08;;;;;;;1999.90;999.90;;;-4.60;99.90;;;;;;5009034;28;20038;-81
2024/01/10 03:02:33;;;;;;;1999.90;999.90;;;-4.50;99.90;;;;;;4996178;28;20058;-81
2024/01/10 03:04:59;;;;;;;1999.90;999.90;;;-3.50;99.90;;;;;;4988736;28;20290;-81
2024/01/10 03:07:25;;;;;;;1999.90;999.90;;;-4.60;99.90;;;;;;4993251;28;20034;-81
2024/01/10 03:09:51;;;;;;;1999.90;999.90;;;-4.60;99.90;;;;;;4991932;28;20475;-81
2024/01/10 03:12:16;;;;;;;1999.90;999.90;;;-4.60;99.90;;;;;;4992793;28;20051;-80
2024/01/10 03:14:42;;;;;;;1999.90;999.90;;;-2.80;99.90;;;;;;4993007;28;20046;-80
2024/01/10 03:17:10;;;;;;;1999.90;999.90;;;-4.50;99.90;;;;;;4994681;28;20053;-81
2024/01/10 03:19:42;;;;;;;1999.90;999.90;;;-4.60;99.90;;;;;;4995678;28;20085;-81
2024/01/10 03:22:08;;;;;;;1999.90;999.90;;;-4.60;99.90;;;;;;5007650;28;20069;-81
2024/01/10 03:24:34;;;;;;;1999.90;999.90;;;-4.70;99.90;;;;;;5004805;28;20113;-81
2024/01/10 03:26:59;;;;;;;1999.90;999.90;;;-4.70;99.90;;;;;;5007405;28;20125;-81
2024/01/10 03:29:25;;;;;;;1999.90;999.90;;;-4.80;99.90;;;;;;5004189;28;20038;-81
2024/01/10 03:31:51;;;;;;;1999.90;999.90;;;-3.60;99.90;;;;;;4995442;28;20034;-81
2024/01/10 03:34:17;;;;;;;1999.90;999.90;;;-3.90;99.90;;;;;;4998449;28;20046;-82
2024/01/10 03:36:43;;;;;;;1999.90;999.90;;;-4.80;99.90;;;;;;5018965;28;20167;-81
2024/01/10 03:39:10;;;;;;;1999.90;999.90;;;-4.90;99.90;;;;;;4998319;28;20479;-82
2024/01/10 03:41:35;;;;;;;1999.90;999.90;;;-4.80;99.90;;;;;;4993683;28;20109;-81
2024/01/10 03:44:01;;;;;;;1999.90;999.90;;;-4.90;99.90;;;;;;5006927;28;20598;-81
2024/01/10 03:46:27;;;;;;;1999.90;999.90;;;-4.90;99.90;;;;;;5001170;28;20041;-81
2024/01/10 03:48:52;;;;;;;1999.90;999.90;;;-4.90;99.90;;;;;;5006756;28;20526;-82
2024/01/10 03:51:19;;;;;;;1999.90;999.90;;;-4.90;99.90;;;;;;4992344;28;20065;-81
2024/01/10 03:53:49;;;;;;;1999.90;999.90;;;-5.90;99.90;;;;;;4993649;28;20035;-81
2024/01/10 03:56:15;;;;;;;1999.90;999.90;;;-4.40;99.90;;;;;;5011026;28;20126;-81
2024/01/10 03:58:41;;;;;;;1999.90;999.90;;;-5.00;99.90;;;;;;5015088;28;20042;-82
2024/01/10 04:01:07;;;;;;;1999.90;999.90;;;-3.70;99.90;;;;;;5008023;28;20565;-82
2024/01/10 04:03:34;;;;;;;1999.90;999.90;;;-5.40;99.90;;;;;;4990819;28;20034;-81
2024/01/10 04:06:01;;;;;;;1999.90;999.90;;;-5.20;99.90;;;;;;4989476;28;20061;-81
2024/01/10 04:08:26;;;;;;;1999.90;999.90;;;-5.00;99.90;;;;;;4994566;28;20042;-81
2024/01/10 04:10:52;;;;;;;1999.90;999.90;;;-5.00;99.90;;;;;;5023986;28;20069;-81
2024/01/10 04:13:18;;;;;;;1999.90;999.90;;;-5.10;99.90;;;;;;5011747;28;20150;-81
2024/01/10 04:15:43;;;;;;;1999.90;999.90;;;-5.10;99.90;;;;;;4999342;28;20041;-81
2024/01/10 04:18:09;;;;;;;1999.90;999.90;;;-5.30;99.90;;;;;;5015126;28;20040;-81
2024/01/10 04:20:34;;;;;;;1999.90;999.90;;;-3.50;99.90;;;;;;4996402;28;20154;-81
2024/01/10 04:23:00;;;;;;;1999.90;999.90;;;-5.20;99.90;;;;;;4996391;28;20034;-81
2024/01/10 04:25:26;;;;;;;1999.90;999.90;;;-5.20;99.90;;;;;;5022164;28;20108;-81
2024/01/10 04:27:51;;;;;;;1999.90;999.90;;;-4.40;99.90;;;;;;5020916;28;20061;-82
2024/01/10 04:30:17;;;;;;;1999.90;999.90;;;-5.10;99.90;;;;;;4996446;28;20101;-82
2024/01/10 04:32:43;;;;;;;1999.90;999.90;;;-4.90;99.90;;;;;;4998626;28;20095;-81
2024/01/10 04:35:09;;;;;;;1999.90;999.90;;;-4.00;99.90;;;;;;5009835;28;20103;-82
2024/01/10 04:37:38;;;;;;;1999.90;999.90;;;-3.70;99.90;;;;;;5004672;28;20038;-81
2024/01/10 04:40:06;;;;;;;1999.90;999.90;;;-3.50;99.90;;;;;;4996370;28;20041;-81
2024/01/10 04:42:32;;;;;;;1999.90;999.90;;;-5.10;99.90;;;;;;5005799;28;20064;-81
2024/01/10 04:44:58;;;;;;;1999.90;999.90;;;-3.60;99.90;;;;;;4993001;28;20042;-81
2024/01/10 04:47:23;;;;;;;1999.90;999.90;;;-3.40;99.90;;;;;;5008178;28;20105;-81
2024/01/10 04:49:49;;;;;;;1999.90;999.90;;;-5.30;99.90;;;;;;4990670;28;20033;-81
2024/01/10 04:52:15;;;;;;;1999.90;999.90;;;-3.50;99.90;;;;;;4988225;28;20046;-81
2024/01/10 04:54:41;;;;;;;1999.90;999.90;;;-5.30;99.90;;;;;;4987811;28;20403;-81
2024/01/10 04:57:07;;;;;;;1999.90;999.90;;;-5.30;99.90;;;;;;5010111;28;20406;-81
2024/01/10 04:59:33;;;;;;;1999.90;999.90;;;-4.30;99.90;;;;;;4991934;28;20041;-81
2024/01/10 05:01:59;;;;;;;1999.90;999.90;;;-5.40;99.90;;;;;;4990048;28;20038;-81
2024/01/10 05:04:24;;;;;;;1999.90;999.90;;;-5.40;99.90;;;;;;5010185;28;20121;-81
2024/01/10 05:06:50;;;;;;;1999.90;999.90;;;-4.20;99.90;;;;;;4996036;28;20070;-82
2024/01/10 05:09:17;;;;;;;1999.90;999.90;;;-3.90;99.90;;;;;;4989587;28;20502;-82
2024/01/10 05:11:43;;;;;;;1999.90;999.90;;;-5.60;99.90;;;;;;4993084;28;20038;-82
2024/01/10 05:14:09;;;;;;;1999.90;999.90;;;-6.40;99.90;;;;;;4994548;28;20487;-82
2024/01/10 05:16:34;;;;;;;1999.90;999.90;;;-3.80;99.90;;;;;;4992061;28;20072;-81
2024/01/10 05:19:03;;;;;;;1999.90;999.90;;;-3.80;99.90;;;;;;4998769;28;20046;-81
2024/01/10 05:21:33;;;;;;;1999.90;999.90;;;-5.50;99.90;;;;;;4998303;28;20081;-81
2024/01/10 05:23:58;;;;;;;1999.90;999.90;;;-5.50;99.90;;;;;;5005283;28;20122;-82
2024/01/10 05:26:24;;;;;;;1999.90;999.90;;;-5.50;99.90;;;;;;4993055;28;20046;-81
2024/01/10 05:28:50;;;;;;;1999.90;999.90;;;-5.50;99.90;;;;;;5016186;28;20029;-81
2024/01/10 05:31:15;;;;;;;1999.90;999.90;;;-5.40;99.90;;;;;;5007653;28;20486;-81
2024/01/10 05:33:42;;;;;;;1999.90;999.90;;;-5.40;99.90;;;;;;4998966;28;20042;-82
2024/01/10 05:36:11;;;;;;;1999.90;999.90;;;-5.40;99.90;;;;;;5009914;28;20054;-82
2024/01/10 05:38:37;;;;;;;1999.90;999.90;;;-5.30;99.90;;;;;;4997572;28;20072;-82
2024/01/10 05:41:03;;;;;;;1999.90;999.90;;;-5.40;99.90;;;;;;4996063;28;20038;-81
2024/01/10 05:43:28;;;;;;;1999.90;999.90;;;-5.00;99.90;;;;;;5013288;28;20042;-82
2024/01/10 05:45:54;;;;;;;1999.90;999.90;;;-5.20;99.90;;;;;;5002090;28;20034;-82
2024/01/10 05:48:19;;;;;;;1999.90;999.90;;;-5.10;99.90;;;;;;5012815;28;20069;-81
2024/01/10 05:50:45;;;;;;;1999.90;999.90;;;-5.10;99.90;;;;;;5006485;28;20545;-81
2024/01/10 05:53:13;;;;;;;1999.90;999.90;;;-5.00;99.90;;;;;;4995917;28;20113;-81
2024/01/10 05:55:42;;;;;;;1999.90;999.90;;;-3.60;99.90;;;;;;5008635;28;20046;-81
2024/01/10 05:58:09;;;;;;;1999.90;999.90;;;-3.90;99.90;;;;;;5020000;28;20046;-82
2024/01/10 06:00:35;;;;;;;1999.90;999.90;;;-4.10;99.90;;;;;;5008534;28;20517;-82
2024/01/10 06:03:00;;;;;;;1999.90;999.90;;;-3.60;99.90;;;;;;4992178;28;20034;-82
2024/01/10 06:05:26;;;;;;;1999.90;999.90;;;-5.00;99.90;;;;;;4999370;28;20061;-82
2024/01/10 06:07:52;;;;;;;1999.90;999.90;;;-4.00;99.90;;;;;;4991464;28;20034;-81
2024/01/10 06:10:18;;;;;;;1999.90;999.90;;;-5.20;99.90;;;;;;4994546;28;20066;-81
2024/01/10 06:12:43;;;;;;;1999.90;999.90;;;-5.10;99.90;;;;;;4987790;28;20042;-82
2024/01/10 06:15:10;;;;;;;1999.90;999.90;;;-5.10;99.90;;;;;;4994462;28;20052;-82
2024/01/10 06:17:36;;;;;;;1999.90;999.90;;;-6.20;99.90;;;;;;5009873;28;20049;-82
2024/01/10 06:20:04;;;;;;;1999.90;999.90;;;-5.20;99.90;;;;;;4997372;28;20042;-81
2024/01/10 06:22:33;;;;;;;1999.90;999.90;;;-5.10;99.90;;;;;;4991615;28;20136;-81
2024/01/10 06:24:58;;;;;;;1999.90;999.90;;;-5.50;99.90;;;;;;4994115;28;20040;-82
2024/01/10 06:27:24;;;;;;;1999.90;999.90;;;-3.50;99.90;;;;;;4991177;28;20050;-81
2024/01/10 06:29:50;;;;;;;1999.90;999.90;;;-4.60;99.90;;;;;;4994612;28;20034;-82
2024/01/10 06:32:16;;;;;;;1999.90;999.90;;;-6.00;99.90;;;;;;4992803;28;20430;-81
2024/01/10 06:34:41;;;;;;;1999.90;999.90;;;-4.90;99.90;;;;;;5020297;28;20058;-82
2024/01/10 06:37:08;;;;;;;1999.90;999.90;;;-3.30;99.90;;;;;;4999677;28;20042;-82
2024/01/10 06:39:34;;;;;;;1999.90;999.90;;;-2.90;99.90;;;;;;5003905;28;20102;-82
2024/01/10 06:42:00;;;;;;;1999.90;999.90;;;-4.80;99.90;;;;;;5009144;28;20093;-81
2024/01/10 06:44:27;;;;;;;1999.90;999.90;;;-3.70;99.90;;;;;;5008959;28;20037;-81
2024/01/10 06:46:53;;;;;;;1999.90;999.90;;;-5.10;99.90;;;;;;5004984;28;20061;-82
2024/01/10 06:49:19;;;;;;;1999.90;999.90;;;-3.60;99.90;;;;;;4997616;28;20034;-82
2024/01/10 06:51:45;;;;;;;1999.90;999.90;;;-3.10;99.90;;;;;;4994565;28;20549;-82
2024/01/10 06:54:10;;;;;;;1999.90;999.90;;;-4.90;99.90;;;;;;5000909;28;20030;-82
2024/01/10 06:56:36;;;;;;;1999.90;999.90;;;-3.70;99.90;;;;;;5015484;28;20065;-82
2024/01/10 06:59:02;;;;;;;1999.90;999.90;;;-5.00;99.90;;;;;;5001926;28;20038;-83
2024/01/10 07:01:28;;;;;;;1999.90;999.90;;;-3.60;99.90;;;;;;4998394;28;20483;-82
2024/01/10 07:03:54;;;;;;;1999.90;999.90;;;-4.90;99.90;;;;;;5004863;28;20030;-82
2024/01/10 07:06:21;;;;;;;1999.90;999.90;;;-4.50;99.90;;;;;;5009278;28;20046;-82
2024/01/10 07:08:49;;;;;;;1999.90;999.90;;;-5.30;99.90;;;;;;4997182;28;20042;-83
2024/01/10 07:11:15;;;;;;;1999.90;999.90;;;-5.00;99.90;;;;;;4996190;28;20066;-83
2024/01/10 07:13:41;;;;;;;1999.90;999.90;;;-4.40;99.90;;;;;;5011519;28;20042;-82
2024/01/10 07:16:08;;;;;;;1999.90;999.90;;;-5.00;99.90;;;;;;5000100;28;20121;-82
2024/01/10 07:18:33;;;;;;;1999.90;999.90;;;-5.00;99.90;;;;;;4995452;28;20700;-82
2024/01/10 07:20:59;;;;;;;1999.90;999.90;;;-5.00;99.90;;;;;;5000173;28;20073;-82
2024/01/10 07:23:26;;;;;;;1999.90;999.90;;;-5.00;99.90;;;;;;4993607;28;20054;-81
2024/01/10 07:25:52;;;;;;;1999.90;999.90;;;-5.00;99.90;;;;;;4993701;28;20108;-82
2024/01/10 07:28:18;;;;;;;1999.90;999.90;;;-4.90;99.90;;;;;;4995313;28;20065;-82
2024/01/10 07:30:44;;;;;;;1999.90;999.90;;;-4.90;99.90;;;;;;5000599;28;20045;-82
2024/01/10 07:33:10;;;;;;;1999.90;999.90;;;-4.90;99.90;;;;;;4997295;28;20030;-82
2024/01/10 07:35:38;;;;;;;1999.90;999.90;;;-3.80;99.90;;;;;;5001316;28;20486;-83
2024/01/10 07:38:07;;;;;;;1999.90;999.90;;;-4.80;99.90;;;;;;5016729;28;20065;-83
2024/01/10 07:40:33;;;;;;;1999.90;999.90;;;-4.80;99.90;;;;;;4996054;28;20038;-82
2024/01/10 07:42:59;;;;;;;1999.90;999.90;;;-3.40;99.90;;;;;;4993441;28;20402;-81
2024/01/10 07:45:25;;;;;;;1999.90;999.90;;;-3.10;99.90;;;;;;4996679;28;20073;-82
2024/01/10 07:47:51;;;;;;;1999.90;999.90;;;-4.70;99.90;;;;;;4993950;28;20112;-82
2024/01/10 07:50:19;;;;;;;1999.90;999.90;;;-6.00;99.90;;;;;;4993683;28;20101;-82
2024/01/10 07:52:46;;;;;;;1999.90;999.90;;;-4.70;99.90;;;;;;4995070;28;20084;-82
2024/01/10 07:55:12;;;;;;;1999.90;999.90;;;-3.40;99.90;;;;;;4995308;28;20051;-82
2024/01/10 07:57:37;;;;;;;1999.90;999.90;;;-3.40;99.90;;;;;;4995583;28;20045;-82
2024/01/10 08:00:10;;;;;;;1999.90;999.90;;;-3.40;99.90;;;;;;4985622;28;20034;-83
2024/01/10 08:02:39;;;;;;;1999.90;999.90;;;-4.70;99.90;;;;;;5000193;28;20041;-82
2024/01/10 08:05:08;;;;;;;1999.90;999.90;;;-4.00;99.90;;;;;;4996165;28;20042;-81
2024/01/10 08:07:36;;;;;;;1999.90;999.90;;;-4.60;99.90;;;;;;4993777;28;20458;-82
2024/01/10 08:10:08;;;;;;;1999.90;999.90;;;-5.00;99.90;;;;;;4997485;28;20044;-83
2024/01/10 08:12:38;;;;;;;1999.90;999.90;;;-4.10;99.90;;;;;;4994874;28;20164;-83
2024/01/10 08:15:07;;;;;;;1999.90;999.90;;;-2.70;99.90;;;;;;5008694;28;20124;-83
2024/01/10 08:17:34;;;;;;;1999.90;999.90;;;-4.60;99.90;;;;;;4996720;28;20046;-83
2024/01/10 08:20:00;;;;;;;1999.90;999.90;;;-4.60;99.90;;;;;;4989100;28;20054;-82
2024/01/10 08:22:29;;;;;;;1999.90;999.90;;;-3.50;99.90;;;;;;5007126;28;20045;-82
2024/01/10 08:24:55;;;;;;;1999.90;999.90;;;-4.90;99.90;;;;;;4987562;28;20038;-82
2024/01/10 08:27:21;;;;;;;1999.90;999.90;;;-2.80;99.90;;;;;;4995514;28;20038;-82
2024/01/10 08:29:47;;;;;;;1999.90;999.90;;;-4.50;99.90;;;;;;4977797;28;20048;-82
2024/01/10 08:32:13;;;;;;;1999.90;999.90;;;-5.10;99.90;;;;;;4995910;28;20157;-82
2024/01/10 08:34:38;;;;;;;1999.90;999.90;;;-5.30;99.90;;;;;;5009480;28;20060;-83
2024/01/10 08:37:04;;;;;;;1999.90;999.90;;;-4.70;99.90;;;;;;4994558;28;20038;-82
2024/01/10 08:39:30;;;;;;;1999.90;999.90;;;-3.30;99.90;;;;;;4995703;28;20070;-83
2024/01/10 08:41:58;;;;;;;1999.90;999.90;;;-4.50;99.90;;;;;;4995137;28;20048;-83
2024/01/10 08:44:24;;;;;;;1999.90;999.90;;;-4.50;99.90;;;;;;4995162;28;20077;-82
2024/01/10 08:46:55;;;;;;;1999.90;999.90;;;-4.50;99.90;;;;;;4996282;28;20042;-82
2024/01/10 08:49:21;;;;;;;1999.90;999.90;;;-3.30;99.90;;;;;;4999417;28;20046;-82
2024/01/10 08:51:47;;;;;;;1999.90;999.90;;;-3.30;99.90;;;;;;4992829;28;20039;-83
2024/01/10 08:54:16;;;;;;;1999.90;999.90;;;-3.80;99.90;;;;;;4998008;28;20037;-82
2024/01/10 08:56:48;;;;;;;1999.90;999.90;;;-1.00;99.90;;;;;;4995017;28;20042;-82
2024/01/10 08:59:14;;;;;;;1999.90;999.90;;;-2.30;99.90;;;;;;5000109;28;20034;-82
2024/01/10 09:01:42;;;;;;;1999.90;999.90;;;-4.90;99.90;;;;;;4992006;28;20038;-82
2024/01/10 09:04:11;;;;;;;1999.90;999.90;;;-4.30;99.90;;;;;;5001532;28;20038;-83
2024/01/10 09:06:37;;;;;;;1999.90;999.90;;;-2.80;99.90;;;;;;4998870;28;20048;-82
2024/01/10 09:09:02;;;;;;;1999.90;999.90;;;-5.30;99.90;;;;;;5003472;28;20030;-82
2024/01/10 09:11:28;;;;;;;1999.90;999.90;;;-4.20;99.90;;;;;;5003294;28;20042;-82
2024/01/10 09:13:54;;;;;;;1999.90;999.90;;;-4.80;99.90;;;;;;5000776;28;20041;-82
2024/01/10 09:16:20;;;;;;;1999.90;999.90;;;-4.40;99.90;;;;;;5024463;28;20074;-82
2024/01/10 09:18:46;;;;;;;1999.90;999.90;;;-2.80;99.90;;;;;;4998793;28;20057;-82
2024/01/10 09:21:12;;;;;;;1999.90;999.90;;;-2.80;99.90;;;;;;5016785;28;20053;-82
2024/01/10 09:23:37;;;;;;;1999.90;999.90;;;-2.30;99.90;;;;;;5000390;28;20230;-82
2024/01/10 09:26:04;;;;;;;1999.90;999.90;;;-3.90;99.90;;;;;;5000405;28;20047;-82
2024/01/10 09:28:29;;;;;;;1999.90;999.90;;;-3.90;99.90;;;;;;5000824;28;20049;-82
2024/01/10 09:30:55;;;;;;;1999.90;999.90;;;-3.90;99.90;;;;;;5003718;28;20045;-83
2024/01/10 09:33:22;;;;;;;1999.90;999.90;;;-3.90;99.90;;;;;;5000196;28;20108;-82
2024/01/10 09:35:48;;;;;;;1999.90;999.90;;;-3.00;99.90;;;;;;4999301;28;20037;-82
2024/01/10 09:38:14;;;;;;;1999.90;999.90;;;-3.80;99.90;;;;;;4999823;28;20114;-82
2024/01/10 09:40:40;;;;;;;1999.90;999.90;;;-2.40;99.90;;;;;;5000906;28;20062;-82
2024/01/10 09:43:07;;;;;;;1999.90;999.90;;;-3.80;99.90;;;;;;4996992;28;20066;-83
2024/01/10 09:45:36;;;;;;;1999.90;999.90;;;-3.70;99.90;;;;;;5001564;28;20049;-83
2024/01/10 09:48:05;;;;;;;1999.90;999.90;;;-3.70;99.90;;;;;;5001594;28;20034;-82
2024/01/10 09:50:31;;;;;;;1999.90;999.90;;;-3.80;99.90;;;;;;5007103;28;20044;-82
2024/01/10 09:53:08;;;;;;;1999.90;999.90;;;-1.70;99.90;;;;;;4999117;28;20409;-82
2024/01/10 09:55:35;;;;;;;1999.90;999.90;;;-4.10;99.90;;;;;;4995642;28;20134;-82
2024/01/10 09:58:05;;;;;;;1999.90;999.90;;;-2.90;99.90;;;;;;5002938;28;20037;-82
2024/01/10 10:00:33;;;;;;;1999.90;999.90;;;-2.10;99.90;;;;;;5001160;28;20081;-82
2024/01/10 10:03:00;;;;;;;1999.90;999.90;;;-2.80;99.90;;;;;;5001560;28;20038;-82
2024/01/10 10:05:27;;;;;;;1999.90;999.90;;;-3.10;99.90;;;;;;5005235;28;20050;-83
2024/01/10 10:07:53;;;;;;;1999.90;999.90;;;-1.80;99.90;;;;;;4994007;28;20506;-82
2024/01/10 10:10:19;;;;;;;1999.90;999.90;;;-2.30;99.90;;;;;;4995134;28;20070;-82
2024/01/10 10:12:52;;;;;;;1999.90;999.90;;;-3.50;99.90;;;;;;4995684;28;20070;-82
2024/01/10 10:15:21;;;;;;;1999.90;999.90;;;-2.10;99.90;;;;;;4995917;28;20066;-82
2024/01/10 10:17:48;;;;;;;1999.90;999.90;;;-1.90;99.90;;;;;;4999113;28;20132;-82
2024/01/10 10:20:24;;;;;;;1999.90;999.90;;;-3.30;99.90;;;;;;4992473;28;20061;-83
2024/01/10 10:23:00;;;;;;;1999.90;999.90;;;-3.30;99.90;;;;;;5017819;28;20056;-82
2024/01/10 10:25:31;;;;;;;1999.90;999.90;;;-3.20;99.90;;;;;;4997742;28;20120;-82
2024/01/10 10:28:02;;;;;;;1999.90;999.90;;;-1.60;99.90;;;;;;5010142;28;20076;-82
2024/01/10 10:30:32;;;;;;;1999.90;999.90;;;-3.20;99.90;;;;;;4993675;28;20030;-82
2024/01/10 10:32:58;;;;;;;1999.90;999.90;;;-3.20;99.90;;;;;;5001393;28;20587;-83
2024/01/10 10:35:23;;;;;;;1999.90;999.90;;;-3.10;99.90;;;;;;5015512;28;20037;-82
2024/01/10 10:37:54;;;;;;;1999.90;999.90;;;-3.10;99.90;;;;;;4999807;28;20404;-83
2024/01/10 10:40:21;;;;;;;1999.90;999.90;;;-3.10;99.90;;;;;;4998412;28;20410;-82
2024/01/10 10:42:54;;;;;;;1999.90;999.90;;;-2.10;99.90;;;;;;4986640;28;20050;-82
2024/01/10 10:45:25;;;;;;;1999.90;999.90;;;-3.30;99.90;;;;;;4991669;28;20503;-82
2024/01/10 10:47:58;;;;;;;1999.90;999.90;;;-2.50;99.90;;;;;;4992917;28;20032;-82
2024/01/10 10:50:27;;;;;;;1999.90;999.90;;;-3.20;99.90;;;;;;4991534;28;20482;-82
2024/01/10 10:52:55;;;;;;;1999.90;999.90;;;-2.90;99.90;;;;;;5008746;28;20057;-82
2024/01/10 10:55:23;;;;;;;1999.90;999.90;;;-2.90;99.90;;;;;;4991741;28;20069;-82
2024/01/10 10:57:50;;;;;;;1999.90;999.90;;;-2.80;99.90;;;;;;4989540;28;20415;-82
2024/01/10 11:00:21;;;;;;;1999.90;999.90;;;-2.80;99.90;;;;;;4988455;28;20581;-82
2024/01/10 11:02:47;;;;;;;1999.90;948.03;;;-2.70;99.90;;;;;;4992562;28;20483;-82
2024/01/10 11:05:13;;;;;;;1999.90;999.90;;;-2.70;99.90;;;;;;4991874;28;20537;-82
2024/01/10 11:07:49;;;;;;;1999.90;999.90;;;-2.60;99.90;;;;;;4993538;28;20349;-83
2024/01/10 11:10:24;;;;;;;1999.90;977.95;;;-2.60;99.90;;;;;;5002005;28;20045;-82
2024/01/10 11:13:08;;;;;;;1999.90;999.90;;;-3.00;99.90;;;;;;4993655;28;20034;-82
2024/01/10 11:16:11;;;;;;;1999.90;999.90;;;-2.50;99.90;;;;;;4992440;28;20041;-82
2024/01/10 11:18:59;;;;;;;1999.90;999.90;;;-2.40;99.90;;;;;;5020209;28;20049;-82
2024/01/10 11:21:43;;;;;;;1999.90;999.90;;;-2.30;99.90;;;;;;5006914;28;20113;-83
2024/01/10 11:24:09;;;;;;;;;;;-2.20;99.90;;;;;;4998333;28;20038;-82
2024/01/10 11:26:37;;;;;;;1999.90;999.90;;;-2.20;99.90;;;;;;5013944;28;19949;-82
2024/01/10 11:29:04;;;;;;;1999.90;999.90;;;-2.10;99.90;;;;;;4993870;28;20097;-82
2024/01/10 11:31:31;;;;;;;1999.90;999.90;;;-0.50;99.90;;;;;;4998120;28;20046;-83
2024/01/10 11:34:02;;;;;;;1999.90;999.90;;;-0.60;99.90;;;;;;5006747;28;20541;-83
2024/01/10 11:36:28;;;;;;;1999.90;999.90;;;-2.00;99.90;;;;;;4993453;28;20035;-83
2024/01/10 11:38:57;;;;;;;1999.90;999.90;;;-2.00;99.90;;;;;;5000199;28;20052;-83
2024/01/10 11:41:32;;;;;;;1999.90;999.90;;;-2.00;99.90;;;;;;4990932;28;20042;-82
2024/01/10 11:44:10;;;;;;;1999.90;999.90;;;-1.90;99.90;;;;;;4991740;28;20063;-82
2024/01/10 11:46:46;;;;;;;1999.90;999.90;;;-1.90;99.90;;;;;;4989820;28;20057;-82
2024/01/10 11:49:18;;;;;;;1999.90;999.90;;;-1.90;99.90;;;;;;4988657;28;20042;-82
2024/01/10 11:51:54;;;;;;;1999.90;999.90;;;-3.20;99.90;;;;;;4995260;28;20038;-83
2024/01/10 11:54:36;;;;;;;1999.90;999.90;;;-2.20;99.90;;;;;;4997933;28;20037;-82
2024/01/10 11:57:02;;;;;;;1999.90;999.90;;;-1.80;99.90;;;;;;5013948;28;20048;-82
2024/01/10 11:59:32;;;;;;;1999.90;999.90;;;-1.80;99.90;;;;;;5010900;28;20185;-83